Aviation Digital Data Service (ADDS)

Output produced by METARs form (1205 UTC 24 February 2018)
found at http://www.aviationweather.gov/adds/metars/
 
KXNA 241140Z 2412/2512 VRB06KT 6SM -RA BR SCT009 BKN010 BKN022 
     TEMPO 2412/2414 2SM -RA BR BKN004 
     FM241400 VRB03KT 4SM BR OVC003 
     FM241700 VRB06KT 3SM -RA BKN005 
     TEMPO 2417/2420 VRB15G25KT 2SM -TSRA BR BKN015CB 
     FM242300 28013KT P6SM BKN015 BKN025 
     FM250500 28008KT P6SM SKC